Time;durP1;ratioP1;P1;durP2;ratioP2;P2;SDS_P1;SDS_P2;PMS_P1;PMS_P2;Temp;Humidity;BMP_temperature;BMP_pressure;BME280_temperature;BME280_humidity;BME280_pressure;Samples;Min_cycle;Max_cycle;Signal;HPM_P1;HPM_P2
2020/12/07 00:02:05;;;;;;;28.13;17.27;;;;;;;7.03;72.71;97867.72;4980023;28;20050;-87
2020/12/07 00:04:31;;;;;;;34.90;19.90;;;;;;;7.04;72.57;97864.16;4979913;28;20058;-88
2020/12/07 00:06:58;;;;;;;33.25;19.40;;;;;;;7.07;72.45;97857.06;4979350;28;20059;-88
2020/12/07 00:09:26;;;;;;;31.95;19.27;;;;;;;7.09;72.54;97845.53;4978615;28;20226;-87
2020/12/07 00:11:53;;;;;;;30.38;18.10;;;;;;;7.09;72.51;97839.44;4978874;28;20050;-87
2020/12/07 00:14:20;;;;;;;30.42;17.38;;;;;;;7.12;72.40;97853.16;4979250;28;20057;-87
2020/12/07 00:16:47;;;;;;;28.02;15.75;;;;;;;7.13;72.59;97856.59;4977904;28;20066;-87
2020/12/07 00:19:13;;;;;;;30.20;17.05;;;;;;;7.14;72.49;97861.72;4977821;28;20054;-88
2020/12/07 00:21:43;;;;;;;27.55;16.67;;;;;;;7.14;72.07;97866.94;4977876;28;20047;-87
2020/12/07 00:24:10;;;;;;;28.98;16.25;;;;;;;7.17;72.58;97853.66;4977666;28;20046;-87
2020/12/07 00:26:37;;;;;;;28.92;16.75;;;;;;;7.17;72.45;97831.88;4979448;28;20059;-88
2020/12/07 00:29:04;;;;;;;24.75;15.93;;;;;;;7.17;72.08;97837.09;4978893;28;20061;-87
2020/12/07 00:31:33;;;;;;;28.15;17.27;;;;;;;7.17;71.79;97848.41;4979660;28;20134;-88
2020/12/07 00:34:00;;;;;;;29.98;17.83;;;;;;;7.19;72.02;97842.22;4979264;28;20449;-87
2020/12/07 00:36:29;;;;;;;30.70;16.85;;;;;;;7.17;72.35;97831.88;4977831;28;20047;-88
2020/12/07 00:38:56;;;;;;;30.15;18.05;;;;;;;7.20;72.09;97843.88;4979063;28;20046;-87
2020/12/07 00:41:23;;;;;;;26.70;16.45;;;;;;;7.18;72.06;97846.66;4978925;28;20054;-87
2020/12/07 00:43:50;;;;;;;27.77;17.80;;;;;;;7.19;72.35;97839.59;4977376;28;20062;-87
2020/12/07 00:46:17;;;;;;;26.17;16.63;;;;;;;7.17;72.08;97817.00;4980123;28;20055;-88
2020/12/07 00:48:44;;;;;;;30.83;18.00;;;;;;;7.17;72.05;97822.25;5017545;23;20055;-90
2020/12/07 00:51:10;;;;;;;27.52;17.98;;;;;;;7.16;72.05;97807.50;4975345;28;20054;-90
2020/12/07 00:53:36;;;;;;;19.35;12.40;;;;;;;7.16;71.82;97819.75;4976745;28;20127;-90
2020/12/07 00:56:03;;;;;;;25.38;16.58;;;;;;;7.13;72.25;97835.66;4975628;28;20093;-90
2020/12/07 00:58:29;;;;;;;24.58;14.98;;;;;;;7.12;72.06;97836.63;4975217;28;20085;-90
2020/12/07 01:00:57;;;;;;;25.67;16.55;;;;;;;7.10;71.97;97839.34;4975549;28;20050;-91
2020/12/07 01:03:24;;;;;;;28.25;16.58;;;;;;;7.11;72.05;97837.56;4975733;28;20051;-91
2020/12/07 01:05:53;;;;;;;29.50;17.45;;;;;;;7.10;71.78;97836.72;4975250;28;20084;-91
2020/12/07 01:08:19;;;;;;;29.33;17.73;;;;;;;7.07;72.01;97828.28;4975065;28;20059;-91
2020/12/07 01:10:46;;;;;;;26.88;16.92;;;;;;;7.03;71.80;97831.09;4977346;28;20085;-91
2020/12/07 01:13:12;;;;;;;29.63;17.50;;;;;;;7.01;71.39;97834.78;4974843;28;20113;-91
2020/12/07 01:15:39;;;;;;;29.08;17.30;;;;;;;6.96;71.56;97836.91;4975853;28;20070;-90
2020/12/07 01:18:05;;;;;;;27.30;17.33;;;;;;;6.89;71.50;97829.50;4974780;28;20054;-90
2020/12/07 01:20:35;;;;;;;29.48;17.05;;;;;;;6.83;71.61;97824.72;4974941;28;20055;-91
2020/12/07 01:23:11;;;;;;;30.08;17.13;;;;;;;6.77;71.80;97835.66;4974859;28;20061;-91
2020/12/07 01:25:37;;;;;;;34.95;17.95;;;;;;;6.70;71.63;97810.88;4975133;28;20058;-91
2020/12/07 01:28:03;;;;;;;36.45;17.77;;;;;;;6.63;71.86;97802.66;4975068;28;20076;-90
2020/12/07 01:30:30;;;;;;;33.92;16.60;;;;;;;6.57;72.05;97803.91;4974612;28;20141;-90
2020/12/07 01:32:56;;;;;;;31.35;16.55;;;;;;;6.53;72.23;97797.25;4973508;28;20046;-90
2020/12/07 01:35:23;;;;;;;59.58;18.92;;;;;;;6.48;72.20;97805.44;4974317;28;20102;-90
2020/12/07 01:37:49;;;;;;;34.33;17.25;;;;;;;6.47;72.49;97808.16;4974583;28;20058;-90
2020/12/07 01:40:15;;;;;;;92.00;20.30;;;;;;;6.46;72.92;97802.06;4975069;28;20489;-91
2020/12/07 01:42:41;;;;;;;69.82;20.90;;;;;;;6.47;72.39;97795.06;4974584;28;20121;-90
2020/12/07 01:45:08;;;;;;;33.72;17.70;;;;;;;6.47;72.93;97813.38;4974619;28;20093;-90
2020/12/07 01:47:34;;;;;;;35.58;17.45;;;;;;;6.47;73.09;97802.91;4974288;28;20137;-90
2020/12/07 01:50:01;;;;;;;40.95;16.52;;;;;;;6.49;73.38;97809.72;4974467;28;20054;-90
2020/12/07 01:52:27;;;;;;;41.05;17.15;;;;;;;6.54;73.53;97808.53;4974142;28;20054;-90
2020/12/07 01:54:54;;;;;;;36.90;16.92;;;;;;;6.57;73.60;97798.69;4974044;28;20050;-91
2020/12/07 01:57:20;;;;;;;29.17;14.75;;;;;;;6.61;73.61;97794.91;4974157;28;20050;-90
2020/12/07 01:59:47;;;;;;;30.58;16.83;;;;;;;6.67;73.44;97795.41;4974289;28;20386;-90
2020/12/07 02:02:13;;;;;;;55.95;18.23;;;;;;;6.72;73.29;97790.66;4974258;28;20159;-90
2020/12/07 02:04:39;;;;;;;31.23;17.58;;;;;;;6.75;73.35;97787.84;4974138;28;20047;-90
2020/12/07 02:07:05;;;;;;;38.78;17.35;;;;;;;6.80;73.21;97779.66;4974016;28;20051;-90
2020/12/07 02:09:31;;;;;;;47.40;18.40;;;;;;;6.83;73.14;97782.88;4975585;28;20059;-90
2020/12/07 02:11:58;;;;;;;33.25;17.00;;;;;;;6.88;73.00;97783.38;4974184;28;20059;-90
2020/12/07 02:14:25;;;;;;;35.17;18.92;;;;;;;6.91;73.36;97791.00;4973771;28;20042;-90
2020/12/07 02:16:51;;;;;;;30.73;17.48;;;;;;;6.95;73.23;97775.91;4974008;28;20058;-90
2020/12/07 02:19:17;;;;;;;30.95;18.15;;;;;;;6.98;73.17;97778.31;4974677;28;20061;-90
2020/12/07 02:21:43;;;;;;;25.65;16.77;;;;;;;7.01;72.73;97785.09;4974365;28;20138;-90
2020/12/07 02:24:10;;;;;;;29.77;17.65;;;;;;;7.04;72.85;97779.63;4973879;28;20057;-90
2020/12/07 02:26:36;;;;;;;30.60;17.48;;;;;;;7.06;72.58;97767.25;4973912;28;20058;-90
2020/12/07 02:29:03;;;;;;;36.00;17.83;;;;;;;7.08;72.79;97764.53;4973921;28;20050;-90
2020/12/07 02:31:29;;;;;;;28.80;16.30;;;;;;;7.08;72.45;97762.75;4973819;28;20046;-90
2020/12/07 02:33:55;;;;;;;24.10;14.38;;;;;;;7.09;72.68;97761.81;4973648;28;20126;-90
2020/12/07 02:36:21;;;;;;;31.25;18.40;;;;;;;7.10;72.41;97766.09;4974245;28;20058;-90
2020/12/07 02:39:06;;;;;;;26.75;16.25;;;;;;;7.13;72.35;97760.63;4973925;28;20051;-90
2020/12/07 02:41:32;;;;;;;29.17;17.67;;;;;;;7.13;72.66;97758.00;4973813;28;20053;-90
2020/12/07 02:43:58;;;;;;;31.58;17.42;;;;;;;7.15;72.71;97766.56;4973359;28;20058;-90
2020/12/07 02:46:28;;;;;;;30.70;16.40;;;;;;;7.15;72.13;97755.28;4973387;28;20061;-90
2020/12/07 02:48:54;;;;;;;29.38;17.67;;;;;;;7.16;72.50;97752.56;4973320;28;20061;-90
2020/12/07 02:51:20;;;;;;;30.88;16.63;;;;;;;7.17;72.41;97741.13;4973827;28;20068;-90
2020/12/07 02:53:46;;;;;;;27.90;16.02;;;;;;;7.17;72.05;97738.50;4973491;28;20441;-90
2020/12/07 02:56:12;;;;;;;25.98;16.05;;;;;;;7.13;71.90;97739.69;4973625;28;20497;-90
2020/12/07 02:58:38;;;;;;;22.88;14.05;;;;;;;7.11;71.77;97740.75;4974901;28;20138;-90
2020/12/07 03:01:04;;;;;;;25.42;14.88;;;;;;;7.08;72.05;97744.44;4973550;28;20142;-90
2020/12/07 03:03:30;;;;;;;26.52;15.55;;;;;;;7.07;72.29;97744.56;4973307;28;20055;-89
2020/12/07 03:05:57;;;;;;;29.85;14.07;;;;;;;7.06;72.38;97729.81;4974560;28;20138;-89
2020/12/07 03:08:23;;;;;;;22.77;13.98;;;;;;;7.04;72.45;97737.78;4973351;28;20050;-90
2020/12/07 03:10:49;;;;;;;25.65;14.55;;;;;;;7.03;72.23;97733.50;4974617;28;20053;-90
2020/12/07 03:13:15;;;;;;;23.95;14.32;;;;;;;7.02;72.06;97740.50;4973090;28;20070;-90
2020/12/07 03:15:41;;;;;;;23.05;13.35;;;;;;;7.01;72.05;97735.38;4972510;28;20046;-90
2020/12/07 03:18:07;;;;;;;26.23;13.30;;;;;;;7.00;72.14;97725.88;4972159;28;20055;-91
2020/12/07 03:20:33;;;;;;;24.25;13.82;;;;;;;6.98;71.98;97731.22;4973328;28;20051;-90
2020/12/07 03:22:59;;;;;;;19.40;11.82;;;;;;;6.98;71.95;97725.13;4973291;28;20413;-90
2020/12/07 03:25:25;;;;;;;21.33;12.20;;;;;;;6.96;72.24;97721.81;4973303;28;20054;-90
2020/12/07 03:27:52;;;;;;;21.52;12.75;;;;;;;6.96;72.30;97711.34;4973258;28;20057;-90
2020/12/07 03:30:18;;;;;;;20.58;12.88;;;;;;;6.96;72.57;97724.44;4973257;28;20047;-90
2020/12/07 03:32:44;;;;;;;18.42;11.15;;;;;;;6.96;72.57;97725.28;4972964;28;20611;-90
2020/12/07 03:35:10;;;;;;;16.38;11.18;;;;;;;6.96;72.54;97725.28;4972862;28;20051;-90
2020/12/07 03:37:36;;;;;;;19.77;12.10;;;;;;;6.95;72.07;97723.59;4973629;28;20054;-91
2020/12/07 03:40:03;;;;;;;20.30;12.23;;;;;;;6.96;72.00;97721.81;4973573;28;20062;-90
2020/12/07 03:42:29;;;;;;;17.83;11.40;;;;;;;6.95;71.96;97717.53;4974135;28;20516;-90
2020/12/07 03:44:56;;;;;;;19.50;11.10;;;;;;;6.96;71.90;97716.59;4973069;28;20054;-89
2020/12/07 03:47:22;;;;;;;16.55;10.77;;;;;;;6.93;71.96;97717.66;4972630;28;20062;-90
2020/12/07 03:49:48;;;;;;;17.30;10.85;;;;;;;6.90;71.94;97716.09;4973041;28;20509;-89
2020/12/07 03:52:15;;;;;;;17.67;11.48;;;;;;;6.87;71.51;97718.94;4972830;28;20101;-90
2020/12/07 03:54:41;;;;;;;18.17;11.75;;;;;;;6.84;71.46;97708.69;4972829;28;20058;-89
2020/12/07 03:57:07;;;;;;;17.88;11.82;;;;;;;6.78;71.69;97714.41;4977117;28;20062;-90
2020/12/07 03:59:33;;;;;;;18.05;11.30;;;;;;;6.73;71.47;97716.53;4976244;28;20050;-89
2020/12/07 04:02:01;;;;;;;14.68;10.40;;;;;;;6.68;71.44;97711.63;4976262;28;20086;-90
2020/12/07 04:04:34;;;;;;;18.45;10.35;;;;;;;6.65;72.01;97706.63;4977086;28;20043;-89
2020/12/07 04:07:01;;;;;;;17.30;11.20;;;;;;;6.61;72.11;97719.09;4976375;28;20059;-89
2020/12/07 04:09:27;;;;;;;16.17;10.10;;;;;;;6.59;72.17;97720.16;4976023;28;20051;-89
2020/12/07 04:11:53;;;;;;;17.15;10.65;;;;;;;6.56;72.43;97723.84;4976222;28;20133;-89
2020/12/07 04:14:19;;;;;;;14.95;9.80;;;;;;;6.56;72.32;97718.59;4975825;28;20050;-89
2020/12/07 04:16:45;;;;;;;15.63;9.70;;;;;;;6.56;72.36;97723.84;4976108;28;20052;-90
2020/12/07 04:19:11;;;;;;;15.35;8.65;;;;;;;6.59;72.61;97720.16;4975825;28;20050;-89
2020/12/07 04:21:37;;;;;;;13.02;9.05;;;;;;;6.59;72.46;97730.63;4976157;28;20391;-89
2020/12/07 04:24:03;;;;;;;13.07;8.27;;;;;;;6.60;72.47;97722.66;4975705;28;20058;-89
2020/12/07 04:26:29;;;;;;;11.18;7.72;;;;;;;6.61;72.44;97720.88;4976200;28;20046;-90
2020/12/07 04:28:56;;;;;;;10.52;7.55;;;;;;;6.63;72.36;97716.38;4976647;28;20054;-89
2020/12/07 04:31:24;;;;;;;10.52;7.80;;;;;;;6.64;72.28;97716.25;4975657;28;20098;-89
2020/12/07 04:33:50;;;;;;;11.20;7.45;;;;;;;6.64;72.38;97711.03;4976662;28;20061;-89
2020/12/07 04:36:17;;;;;;;9.80;6.72;;;;;;;6.64;72.09;97702.34;4976782;28;20512;-89
2020/12/07 04:38:43;;;;;;;10.88;7.32;;;;;;;6.64;72.39;97712.81;4976840;28;20046;-90
2020/12/07 04:41:09;;;;;;;9.25;6.50;;;;;;;6.65;72.40;97714.47;4975771;28;20055;-89
2020/12/07 04:43:35;;;;;;;10.30;6.82;;;;;;;6.65;72.35;97717.06;4975304;28;20521;-89
2020/12/07 04:46:03;;;;;;;8.50;6.35;;;;;;;6.65;72.42;97704.84;4975487;28;20448;-89
2020/12/07 04:48:30;;;;;;;10.00;6.90;;;;;;;6.66;72.30;97697.84;4976476;28;20054;-89
2020/12/07 04:50:56;;;;;;;8.57;6.40;;;;;;;6.67;72.24;97703.91;4975529;28;20047;-89
2020/12/07 04:53:22;;;;;;;9.63;6.75;;;;;;;6.65;72.12;97702.25;4975033;28;20516;-89
2020/12/07 04:55:49;;;;;;;7.65;6.22;;;;;;;6.65;72.38;97697.00;4976208;28;20043;-89
2020/12/07 04:58:16;;;;;;;9.23;6.53;;;;;;;6.68;72.38;97708.16;4975250;28;20413;-89
2020/12/07 05:00:42;;;;;;;9.70;6.47;;;;;;;6.67;72.52;97699.50;4976451;28;20497;-89
2020/12/07 05:03:08;;;;;;;7.82;5.88;;;;;;;6.68;72.60;97701.19;4975155;28;20052;-89
2020/12/07 05:05:36;;;;;;;8.50;5.68;;;;;;;6.69;72.72;97702.03;4975264;28;20043;-89
2020/12/07 05:08:02;;;;;;;7.50;5.50;;;;;;;6.69;72.62;97702.84;4974794;28;20057;-89
2020/12/07 05:10:38;;;;;;;6.57;4.70;;;;;;;6.71;72.24;97702.72;4975181;28;20054;-90
2020/12/07 05:15:39;;;;;;;7.32;4.75;;;;;;;6.68;71.98;97708.16;4976144;28;20057;-89
2020/12/07 05:18:05;;;;;;;7.05;5.30;;;;;;;6.69;72.40;97702.03;4974832;28;20058;-89
2020/12/07 05:20:31;;;;;;;8.43;5.15;;;;;;;6.68;71.87;97697.72;4974754;28;20062;-89
2020/12/07 05:22:59;;;;;;;6.78;4.85;;;;;;;6.65;71.83;97702.25;4974532;28;20051;-89
2020/12/07 05:25:26;;;;;;;6.25;4.95;;;;;;;6.64;71.95;97695.34;4974894;28;20051;-89
2020/12/07 05:27:53;;;;;;;6.72;5.38;;;;;;;6.62;71.93;97702.47;4974561;28;20050;-89
2020/12/07 05:30:25;;;;;;;7.65;4.97;;;;;;;6.60;71.96;97704.38;4974563;28;20524;-89
2020/12/07 05:32:52;;;;;;;6.88;5.53;;;;;;;6.58;72.30;97685.34;4974546;28;20146;-88
2020/12/07 05:35:18;;;;;;;6.63;5.32;;;;;;;6.58;72.39;97680.09;4974611;28;20050;-88
2020/12/07 05:37:44;;;;;;;6.88;4.93;;;;;;;6.58;72.43;97682.72;4975471;28;20047;-88
2020/12/07 05:40:13;;;;;;;7.13;5.28;;;;;;;6.57;72.28;97681.06;4974979;28;20085;-88
2020/12/07 05:42:40;;;;;;;6.25;4.80;;;;;;;6.56;72.54;97678.56;4974186;28;20054;-88
2020/12/07 05:45:08;;;;;;;8.15;5.43;;;;;;;6.56;72.76;97673.31;4974498;28;20047;-88
2020/12/07 05:47:38;;;;;;;7.38;5.00;;;;;;;6.57;72.45;97673.22;4974109;28;20050;-88
2020/12/07 05:50:07;;;;;;;7.20;5.25;;;;;;;6.57;72.87;97678.44;4974282;28;20054;-88
2020/12/07 05:52:42;;;;;;;7.50;5.78;;;;;;;6.57;72.06;97683.66;4973835;28;20509;-89
2020/12/07 05:55:09;;;;;;;7.88;5.50;;;;;;;6.60;72.72;97691.28;4975337;28;20070;-88
2020/12/07 05:57:47;;;;;;;5.97;4.57;;;;;;;6.58;72.12;97706.25;4974203;28;20050;-88
2020/12/07 06:00:19;;;;;;;6.57;4.60;;;;;;;6.61;71.97;97716.47;4975268;28;20054;-88
2020/12/07 06:02:49;;;;;;;6.95;5.03;;;;;;;6.63;72.40;97722.44;4973893;28;20057;-88
2020/12/07 06:05:16;;;;;;;8.75;5.55;;;;;;;6.64;72.34;97711.03;4974931;28;20054;-88
2020/12/07 06:07:48;;;;;;;7.45;5.22;;;;;;;6.64;72.29;97702.34;4973821;28;20055;-88
2020/12/07 06:10:17;;;;;;;9.07;5.95;;;;;;;6.63;71.82;97693.69;4975122;28;20429;-89
2020/12/07 06:12:48;;;;;;;8.82;5.95;;;;;;;6.59;71.73;97673.94;4973675;28;20078;-88
2020/12/07 06:15:19;;;;;;;7.47;5.80;;;;;;;6.54;71.58;97675.22;4973917;28;20054;-89
2020/12/07 06:17:52;;;;;;;7.05;5.78;;;;;;;6.47;71.70;97677.47;4973430;28;20050;-86
2020/12/07 06:20:31;;;;;;;7.93;5.70;;;;;;;6.39;71.43;97671.00;4973957;28;20051;-89
2020/12/07 06:22:59;;;;;;;8.23;5.72;;;;;;;6.36;72.26;97673.03;4974750;28;20051;-88
2020/12/07 06:25:28;;;;;;;9.43;6.18;;;;;;;6.30;72.11;97679.53;4974846;28;20046;-89
2020/12/07 06:27:57;;;;;;;8.93;6.45;;;;;;;6.27;72.28;97692.00;4973922;28;20528;-88
2020/12/07 06:30:30;;;;;;;9.82;6.05;;;;;;;6.24;72.47;97695.63;4973706;28;20053;-89
2020/12/07 06:33:04;;;;;;;9.38;6.80;;;;;;;6.21;72.32;97694.09;4973560;28;20062;-88
2020/12/07 06:35:45;;;;;;;9.70;6.13;;;;;;;6.17;72.06;97691.81;4973823;28;20129;-88
2020/12/07 06:38:13;;;;;;;9.52;6.40;;;;;;;6.18;72.50;97698.72;4973595;28;20065;-89
2020/12/07 06:40:40;;;;;;;7.88;6.30;;;;;;;6.15;72.63;97693.69;4973650;28;20054;-88
2020/12/07 06:43:22;;;;;;;8.55;6.18;;;;;;;6.07;72.25;97682.03;4973509;28;20055;-88
2020/12/07 06:45:48;;;;;;;9.45;6.15;;;;;;;6.09;72.69;97677.53;4973478;28;20051;-87
2020/12/07 07:16:42;;;;;;;11.60;6.40;;;;;;;5.94;73.07;97699.50;5015956;28;20049;-88
2020/12/07 07:19:11;;;;;;;8.95;6.95;;;;;;;5.98;73.38;97698.34;5023448;23;20057;-91
2020/12/07 07:21:50;;;;;;;9.32;6.85;;;;;;;5.98;73.72;97699.16;4973329;28;20057;-90
2020/12/07 07:24:16;;;;;;;12.55;7.95;;;;;;;6.04;73.73;97703.16;4974045;28;20493;-90
2020/12/07 07:26:48;;;;;;;12.25;8.10;;;;;;;6.07;73.65;97696.88;4974611;28;20150;-91
2020/12/07 07:29:14;;;;;;;13.10;8.35;;;;;;;6.07;73.50;97687.28;4973246;28;20417;-90
2020/12/07 07:31:42;;;;;;;12.73;8.50;;;;;;;6.08;73.41;97699.38;4977098;28;20059;-91
2020/12/07 07:34:08;;;;;;;12.27;7.90;;;;;;;6.10;73.79;97702.69;4976779;28;20058;-91
2020/12/07 07:36:35;;;;;;;16.10;8.73;;;;;;;6.07;73.57;97709.94;4978376;28;20417;-91
2020/12/07 07:39:03;;;;;;;15.98;8.15;;;;;;;6.04;73.62;97703.16;4977859;28;20061;-91
2020/12/07 07:41:29;;;;;;;17.52;8.32;;;;;;;6.04;73.50;97697.94;4976688;28;20050;-90
2020/12/07 07:43:57;;;;;;;57.85;10.80;;;;;;;6.01;73.64;97698.09;4976724;28;20125;-91
2020/12/07 07:46:24;;;;;;;32.42;8.57;;;;;;;5.97;73.69;97692.28;4976589;28;20516;-91
2020/12/07 07:49:22;;;;;;;45.95;8.88;;;;;;;5.94;73.77;97694.28;4977740;28;20047;-90
2020/12/07 07:53:00;;;;;;;32.88;8.55;;;;;;;5.93;73.77;97690.81;4976675;28;20054;-89
2020/12/07 08:06:29;;;;;;;93.32;10.95;;;;;;;5.94;74.68;97700.31;4977418;28;20050;-89
2020/12/07 08:17:22;;;;;;;52.58;10.90;;;;;;;6.04;75.21;97703.16;4977017;28;20437;-88
2020/12/07 08:19:50;;;;;;;42.72;11.43;;;;;;;6.06;75.21;97705.66;4977261;28;20050;-89
2020/12/07 08:22:19;;;;;;;22.38;10.77;;;;;;;6.09;75.38;97719.31;4975766;28;20077;-88
2020/12/07 08:24:57;;;;;;;17.88;9.85;;;;;;;6.12;75.33;97720.88;4975917;28;20054;-88
2020/12/07 08:27:33;;;;;;;16.50;10.55;;;;;;;6.17;75.53;97733.63;4975693;28;20493;-91
2020/12/07 08:30:04;;;;;;;17.17;11.25;;;;;;;6.19;75.30;97735.19;4975717;28;20051;-89
2020/12/07 08:32:30;;;;;;;18.85;11.10;;;;;;;6.25;75.58;97746.97;4975340;28;20046;-88
2020/12/07 08:34:56;;;;;;;15.60;11.18;;;;;;;6.27;75.30;97739.84;4976814;28;20057;-88
2020/12/07 08:37:24;;;;;;;17.20;12.10;;;;;;;6.30;75.46;97746.63;4976699;28;20057;-89
2020/12/07 08:39:52;;;;;;;17.17;12.38;;;;;;;6.33;75.59;97749.88;4975703;28;20055;-88
2020/12/07 08:42:21;;;;;;;17.13;11.20;;;;;;;6.36;75.59;97748.81;4975095;28;20051;-88
2020/12/07 08:44:47;;;;;;;16.05;11.60;;;;;;;6.40;75.95;97739.81;4975553;28;20074;-89
2020/12/07 08:47:14;;;;;;;17.67;12.80;;;;;;;6.43;76.02;97747.41;4975301;28;20061;-89
2020/12/07 08:49:48;;;;;;;19.25;14.30;;;;;;;6.46;75.73;97759.41;4975183;28;20057;-89
2020/12/07 08:52:15;;;;;;;19.95;13.70;;;;;;;6.47;75.77;97764.53;4976513;28;20051;-88
2020/12/07 08:54:41;;;;;;;20.83;15.05;;;;;;;6.50;75.78;97773.94;4976314;28;20505;-91
2020/12/07 08:57:07;;;;;;;20.13;14.50;;;;;;;6.51;75.98;97778.22;4976575;28;20062;-88
2020/12/07 08:59:33;;;;;;;19.52;14.52;;;;;;;6.55;76.05;97774.44;4976331;28;20051;-89
2020/12/07 09:01:59;;;;;;;22.67;15.73;;;;;;;6.57;75.86;97774.31;4975871;28;20057;-88
2020/12/07 09:04:25;;;;;;;23.30;16.10;;;;;;;6.60;75.72;97779.34;4976103;28;20053;-89
2020/12/07 09:06:55;;;;;;;25.85;17.58;;;;;;;6.62;75.86;97780.88;4976156;28;20475;-88
2020/12/07 09:09:21;;;;;;;28.58;19.15;;;;;;;6.64;75.70;97778.16;4976201;28;20058;-88
2020/12/07 09:11:48;;;;;;;25.70;17.23;;;;;;;6.67;75.88;97784.94;4975094;28;20051;-88
2020/12/07 09:14:14;;;;;;;28.40;18.48;;;;;;;6.67;75.99;97788.41;4976018;28;20135;-89
2020/12/07 09:16:40;;;;;;;26.42;18.42;;;;;;;6.68;75.95;97784.84;4975245;28;20059;-89
2020/12/07 09:19:06;;;;;;;27.63;19.67;;;;;;;6.70;75.97;97800.41;4974617;28;20424;-89
2020/12/07 09:21:32;;;;;;;28.33;20.52;;;;;;;6.71;75.78;97791.63;4975902;28;20051;-89
2020/12/07 09:23:58;;;;;;;26.25;18.40;;;;;;;6.72;75.89;97793.28;4975833;28;20054;-89
2020/12/07 09:26:24;;;;;;;29.30;19.70;;;;;;;6.74;75.86;97791.41;4975936;28;20486;-88
2020/12/07 09:28:50;;;;;;;30.83;20.92;;;;;;;6.77;75.91;97805.09;4975431;28;20576;-88
2020/12/07 09:31:16;;;;;;;29.83;20.63;;;;;;;6.78;75.97;97805.94;4975762;28;20047;-89
2020/12/07 09:33:42;;;;;;;31.42;20.40;;;;;;;6.80;75.87;97805.81;4975663;28;20497;-88
2020/12/07 09:36:09;;;;;;;31.20;19.92;;;;;;;6.82;75.99;97802.16;4975314;28;20047;-88
2020/12/07 09:38:35;;;;;;;30.42;20.55;;;;;;;6.83;75.91;97792.50;4975568;28;20050;-87
2020/12/07 09:41:01;;;;;;;30.48;20.15;;;;;;;6.86;75.97;97805.34;4974433;28;20058;-88
2020/12/07 09:43:27;;;;;;;28.90;19.58;;;;;;;6.88;75.85;97808.72;4975316;28;20051;-88
2020/12/07 09:45:54;;;;;;;29.77;20.27;;;;;;;6.88;75.94;97812.13;4974340;28;20047;-88
2020/12/07 09:48:20;;;;;;;28.52;19.80;;;;;;;6.90;75.50;97818.13;4974260;28;20051;-89
2020/12/07 09:50:46;;;;;;;31.15;20.10;;;;;;;6.91;75.52;97835.47;4974125;28;20051;-88
2020/12/07 09:53:16;;;;;;;28.20;19.52;;;;;;;6.91;75.66;97845.94;4973407;28;20074;-88
2020/12/07 09:55:44;;;;;;;27.23;19.23;;;;;;;6.93;75.83;97855.44;4975388;28;20046;-88
2020/12/07 09:58:12;;;;;;;27.85;19.27;;;;;;;6.93;75.63;97856.28;4974218;28;20449;-88
2020/12/07 10:00:38;;;;;;;27.05;18.58;;;;;;;6.93;75.64;97853.66;4974139;28;20061;-88
2020/12/07 10:03:04;;;;;;;29.55;19.85;;;;;;;6.94;75.53;97849.25;4973741;28;20517;-89
2020/12/07 10:05:30;;;;;;;29.08;19.40;;;;;;;6.92;75.35;97852.00;4975269;28;20382;-89
2020/12/07 10:07:56;;;;;;;28.13;18.88;;;;;;;6.90;75.17;97857.34;4974930;28;20050;-88
2020/12/07 10:10:22;;;;;;;27.50;18.83;;;;;;;6.87;75.17;97834.00;4975368;28;20390;-89
2020/12/07 10:12:49;;;;;;;28.17;19.23;;;;;;;6.87;75.54;97835.78;4973785;28;20065;-88
2020/12/07 10:15:15;;;;;;;26.63;18.40;;;;;;;6.87;75.57;97835.78;4973895;28;20054;-88
2020/12/07 10:17:41;;;;;;;25.13;18.15;;;;;;;6.87;75.41;97841.03;4973699;28;20055;-89
2020/12/07 10:20:07;;;;;;;26.02;17.85;;;;;;;6.85;75.34;97830.69;4973876;28;20059;-89
2020/12/07 10:22:33;;;;;;;25.95;18.55;;;;;;;6.86;75.47;97834.97;4974736;28;20050;-88
2020/12/07 10:24:59;;;;;;;28.70;17.13;;;;;;;6.85;75.51;97838.53;4973784;28;20043;-88
2020/12/07 10:27:25;;;;;;;25.88;17.08;;;;;;;6.85;75.83;97841.16;4973468;28;20062;-88
2020/12/07 10:29:51;;;;;;;24.95;17.33;;;;;;;6.85;75.38;97841.16;4974666;28;20497;-88
2020/12/07 10:32:19;;;;;;;27.23;18.45;;;;;;;6.84;75.31;97847.31;4973476;28;20061;-90
2020/12/07 10:34:45;;;;;;;27.48;19.00;;;;;;;6.83;75.37;97848.25;4973559;28;20047;-88
2020/12/07 10:37:14;;;;;;;23.52;16.50;;;;;;;6.85;75.22;97848.16;4973542;28;20053;-87
2020/12/07 10:39:40;;;;;;;26.52;16.65;;;;;;;6.84;75.40;97854.34;4974755;28;20062;-88
2020/12/07 10:42:06;;;;;;;24.20;16.27;;;;;;;6.83;75.37;97876.19;4974362;28;20051;-90
2020/12/07 10:44:32;;;;;;;24.58;18.00;;;;;;;6.81;75.08;97862.41;4974871;28;20050;-89
2020/12/07 10:46:58;;;;;;;28.60;18.92;;;;;;;6.80;75.57;97866.78;4973538;28;20051;-89
2020/12/07 10:49:25;;;;;;;26.00;18.25;;;;;;;6.79;75.37;97886.03;4973348;28;20047;-90
2020/12/07 10:51:51;;;;;;;25.83;17.30;;;;;;;6.76;75.24;97881.88;4973343;28;20058;-89
2020/12/07 10:54:17;;;;;;;23.75;16.63;;;;;;;6.74;75.20;97878.53;4973345;28;20058;-88
2020/12/07 10:56:44;;;;;;;26.92;18.10;;;;;;;6.71;75.40;97881.38;4974573;28;20051;-88
2020/12/07 10:59:11;;;;;;;23.42;17.58;;;;;;;6.69;75.22;97882.44;4973502;28;20051;-90
2020/12/07 11:01:37;;;;;;;23.10;16.17;;;;;;;6.68;75.32;97888.56;4973503;28;20057;-89
2020/12/07 11:04:03;;;;;;;22.58;16.88;;;;;;;6.66;75.46;97880.88;4974525;28;20059;-90
2020/12/07 11:06:33;;;;;;;21.50;15.55;;;;;;;6.65;75.61;97879.16;4978470;28;20500;-89
2020/12/07 11:09:04;;;;;;;20.95;15.85;;;;;;;6.64;75.77;97870.50;4977070;28;20054;-90
2020/12/07 11:11:30;;;;;;;24.30;17.08;;;;;;;6.62;75.47;97874.19;4977847;28;20504;-89
2020/12/07 11:13:56;;;;;;;21.75;15.25;;;;;;;6.61;75.46;97870.72;4978198;28;20058;-91
2020/12/07 11:16:24;;;;;;;20.20;15.43;;;;;;;6.61;75.38;97875.94;4978465;28;20057;-89
2020/12/07 11:18:52;;;;;;;20.50;15.32;;;;;;;6.59;75.39;97875.25;4977111;28;20145;-89
2020/12/07 11:21:18;;;;;;;19.40;14.95;;;;;;;6.60;75.32;97876.06;4977217;28;20053;-90
2020/12/07 11:23:48;;;;;;;20.35;14.35;;;;;;;6.59;75.57;97890.09;4977114;28;20058;-90
2020/12/07 11:26:16;;;;;;;19.10;14.85;;;;;;;6.57;75.69;97895.41;4977300;28;20053;-89
2020/12/07 11:28:43;;;;;;;20.98;15.32;;;;;;;6.56;75.32;97898.97;4976781;28;20051;-90
2020/12/07 11:31:11;;;;;;;19.17;14.38;;;;;;;6.55;75.66;97897.31;4977207;28;20047;-90
2020/12/07 11:33:39;;;;;;;19.20;13.95;;;;;;;6.54;75.54;97906.06;4976584;28;20478;-89
2020/12/07 11:36:12;;;;;;;19.50;12.73;;;;;;;6.56;75.57;97904.19;4977443;28;20045;-88
2020/12/07 11:44:08;;;;;;;15.40;12.38;;;;;;;6.57;75.76;97928.53;4978063;28;20050;-89
2020/12/07 11:46:45;;;;;;;17.60;13.00;;;;;;;6.58;75.79;97925.00;4976771;28;20130;-89
2020/12/07 11:49:11;;;;;;;18.83;14.02;;;;;;;6.59;75.63;97932.75;4976625;28;20062;-89
2020/12/07 11:51:38;;;;;;;15.25;12.05;;;;;;;6.60;75.87;97933.56;4976983;28;20062;-89
2020/12/07 11:54:05;;;;;;;18.50;12.98;;;;;;;6.60;75.81;97929.19;4977812;28;20050;-89
2020/12/07 11:56:34;;;;;;;16.63;12.52;;;;;;;6.60;75.64;97931.81;4977971;28;20073;-89
2020/12/07 11:59:00;;;;;;;15.57;11.80;;;;;;;6.60;75.37;97923.97;4977780;28;20062;-90
2020/12/07 12:01:38;;;;;;;15.95;12.32;;;;;;;6.59;75.38;97930.13;4976414;28;20061;-89
2020/12/07 12:04:06;;;;;;;16.42;11.85;;;;;;;6.60;75.57;97938.78;4977486;28;20057;-90
2020/12/07 12:06:37;;;;;;;18.35;13.15;;;;;;;6.57;75.30;97939.84;4977977;28;20059;-89
2020/12/07 12:09:06;;;;;;;16.80;12.65;;;;;;;6.55;75.25;97944.38;4977188;28;20134;-90
2020/12/07 12:11:36;;;;;;;17.30;12.88;;;;;;;6.50;74.94;97936.84;4976429;28;20054;-89
2020/12/07 12:14:05;;;;;;;16.10;12.65;;;;;;;6.50;75.19;97941.22;4976972;28;20087;-89
2020/12/07 12:16:32;;;;;;;15.85;12.27;;;;;;;6.49;75.43;97942.16;4975177;28;20057;-89
2020/12/07 12:19:03;;;;;;;15.38;12.30;;;;;;;6.48;75.62;97943.13;4975806;28;20059;-90
2020/12/07 12:21:30;;;;;;;17.10;12.90;;;;;;;6.46;75.66;97947.59;4976066;28;20077;-92
2020/12/07 12:23:59;;;;;;;20.38;14.43;;;;;;;6.43;75.50;97958.28;4977041;28;20058;-89
2020/12/07 12:26:26;;;;;;;19.08;13.07;;;;;;;6.42;75.31;97948.78;4977002;28;20050;-90
2020/12/07 12:28:52;;;;;;;16.95;12.43;;;;;;;6.40;75.71;97956.72;4975626;28;20568;-88